sensor_id;sensor_type;location;lat;lon;timestamp;temperature;humidity
23291;DHT22;11814;44.686;10.842;2023-08-20T00:00:55;27.40;89.40
23291;DHT22;11814;44.686;10.842;2023-08-20T00:03:21;27.40;89.40
23291;DHT22;11814;44.686;10.842;2023-08-20T00:05:48;27.30;89.60
23291;DHT22;11814;44.686;10.842;2023-08-20T00:08:13;27.30;89.80
23291;DHT22;11814;44.686;10.842;2023-08-20T00:10:39;27.30;90.10
23291;DHT22;11814;44.686;10.842;2023-08-20T00:13:05;27.30;90.20
23291;DHT22;11814;44.686;10.842;2023-08-20T00:15:30;27.20;90.40
23291;DHT22;11814;44.686;10.842;2023-08-20T00:17:56;27.20;90.60
23291;DHT22;11814;44.686;10.842;2023-08-20T00:20:23;27.20;90.70
23291;DHT22;11814;44.686;10.842;2023-08-20T00:22:49;27.20;90.90
23291;DHT22;11814;44.686;10.842;2023-08-20T00:25:16;27.10;91.00
23291;DHT22;11814;44.686;10.842;2023-08-20T00:27:42;27.20;91.10
23291;DHT22;11814;44.686;10.842;2023-08-20T00:30:09;27.10;91.20
23291;DHT22;11814;44.686;10.842;2023-08-20T00:32:36;27.00;91.40
23291;DHT22;11814;44.686;10.842;2023-08-20T00:35:02;27.00;91.60
23291;DHT22;11814;44.686;10.842;2023-08-20T00:37:29;27.00;91.80
23291;DHT22;11814;44.686;10.842;2023-08-20T00:39:55;26.90;91.80
23291;DHT22;11814;44.686;10.842;2023-08-20T00:42:20;26.90;92.20
23291;DHT22;11814;44.686;10.842;2023-08-20T00:44:46;26.90;91.90
23291;DHT22;11814;44.686;10.842;2023-08-20T00:47:13;26.90;91.90
23291;DHT22;11814;44.686;10.842;2023-08-20T00:49:39;26.90;92.00
23291;DHT22;11814;44.686;10.842;2023-08-20T00:52:10;26.90;92.00
23291;DHT22;11814;44.686;10.842;2023-08-20T00:54:39;26.90;91.90
23291;DHT22;11814;44.686;10.842;2023-08-20T00:57:06;26.90;91.90
23291;DHT22;11814;44.686;10.842;2023-08-20T00:59:32;26.90;91.90
23291;DHT22;11814;44.686;10.842;2023-08-20T01:01:59;26.90;91.90
23291;DHT22;11814;44.686;10.842;2023-08-20T01:04:25;26.90;91.90
23291;DHT22;11814;44.686;10.842;2023-08-20T01:12:24;26.80;92.30
23291;DHT22;11814;44.686;10.842;2023-08-20T01:14:50;26.70;92.50
23291;DHT22;11814;44.686;10.842;2023-08-20T01:17:16;26.80;92.70
23291;DHT22;11814;44.686;10.842;2023-08-20T01:19:42;26.70;92.90
23291;DHT22;11814;44.686;10.842;2023-08-20T01:27:56;26.60;93.40
23291;DHT22;11814;44.686;10.842;2023-08-20T01:30:24;26.50;93.50
23291;DHT22;11814;44.686;10.842;2023-08-20T01:32:52;26.50;93.70
23291;DHT22;11814;44.686;10.842;2023-08-20T01:35:19;26.50;93.80
23291;DHT22;11814;44.686;10.842;2023-08-20T01:37:45;26.50;93.90
23291;DHT22;11814;44.686;10.842;2023-08-20T01:40:11;26.40;94.00
23291;DHT22;11814;44.686;10.842;2023-08-20T01:42:38;26.40;94.10
23291;DHT22;11814;44.686;10.842;2023-08-20T01:45:04;26.40;94.20
23291;DHT22;11814;44.686;10.842;2023-08-20T01:47:31;26.40;94.40
23291;DHT22;11814;44.686;10.842;2023-08-20T01:49:57;26.40;94.50
23291;DHT22;11814;44.686;10.842;2023-08-20T01:52:22;26.40;94.60
23291;DHT22;11814;44.686;10.842;2023-08-20T01:54:48;26.40;94.70
23291;DHT22;11814;44.686;10.842;2023-08-20T01:57:14;26.40;94.70
23291;DHT22;11814;44.686;10.842;2023-08-20T01:59:40;26.40;94.60
23291;DHT22;11814;44.686;10.842;2023-08-20T02:02:06;26.40;94.60
23291;DHT22;11814;44.686;10.842;2023-08-20T02:04:32;26.40;94.70
23291;DHT22;11814;44.686;10.842;2023-08-20T02:06:58;26.40;95.10
23291;DHT22;11814;44.686;10.842;2023-08-20T02:09:24;26.40;94.90
23291;DHT22;11814;44.686;10.842;2023-08-20T02:11:50;26.40;95.00
23291;DHT22;11814;44.686;10.842;2023-08-20T02:14:16;26.30;95.00
23291;DHT22;11814;44.686;10.842;2023-08-20T02:16:42;26.30;95.20
23291;DHT22;11814;44.686;10.842;2023-08-20T02:19:08;26.20;95.50
23291;DHT22;11814;44.686;10.842;2023-08-20T02:21:34;26.20;95.70
23291;DHT22;11814;44.686;10.842;2023-08-20T02:24:00;26.20;95.80
23291;DHT22;11814;44.686;10.842;2023-08-20T02:26:25;26.20;96.10
23291;DHT22;11814;44.686;10.842;2023-08-20T02:28:51;26.10;96.20
23291;DHT22;11814;44.686;10.842;2023-08-20T02:31:17;26.00;96.50
23291;DHT22;11814;44.686;10.842;2023-08-20T02:33:42;26.00;96.70
23291;DHT22;11814;44.686;10.842;2023-08-20T02:36:08;26.00;97.00
23291;DHT22;11814;44.686;10.842;2023-08-20T02:38:34;26.00;97.10
23291;DHT22;11814;44.686;10.842;2023-08-20T02:41:03;26.00;97.40
23291;DHT22;11814;44.686;10.842;2023-08-20T02:43:29;26.00;97.60
23291;DHT22;11814;44.686;10.842;2023-08-20T02:45:55;26.00;97.80
23291;DHT22;11814;44.686;10.842;2023-08-20T02:48:20;25.90;98.00
23291;DHT22;11814;44.686;10.842;2023-08-20T02:50:46;25.90;98.20
23291;DHT22;11814;44.686;10.842;2023-08-20T02:53:12;25.90;98.40
23291;DHT22;11814;44.686;10.842;2023-08-20T02:55:38;25.90;98.50
23291;DHT22;11814;44.686;10.842;2023-08-20T02:58:03;25.90;98.70
23291;DHT22;11814;44.686;10.842;2023-08-20T03:00:30;25.80;98.80
23291;DHT22;11814;44.686;10.842;2023-08-20T03:02:56;25.80;99.00
23291;DHT22;11814;44.686;10.842;2023-08-20T03:05:22;25.70;99.40
23291;DHT22;11814;44.686;10.842;2023-08-20T03:07:48;25.70;99.80
23291;DHT22;11814;44.686;10.842;2023-08-20T03:10:14;25.70;99.90
23291;DHT22;11814;44.686;10.842;2023-08-20T03:12:40;25.60;99.90
23291;DHT22;11814;44.686;10.842;2023-08-20T03:15:06;25.60;99.90
23291;DHT22;11814;44.686;10.842;2023-08-20T03:17:32;25.60;99.90
23291;DHT22;11814;44.686;10.842;2023-08-20T03:19:59;25.60;99.90
23291;DHT22;11814;44.686;10.842;2023-08-20T03:22:25;25.50;99.90
23291;DHT22;11814;44.686;10.842;2023-08-20T03:24:51;25.50;99.90
23291;DHT22;11814;44.686;10.842;2023-08-20T03:27:17;25.50;99.90
23291;DHT22;11814;44.686;10.842;2023-08-20T03:29:43;25.40;99.90
23291;DHT22;11814;44.686;10.842;2023-08-20T03:32:09;25.40;99.90
23291;DHT22;11814;44.686;10.842;2023-08-20T03:34:35;25.40;99.90
23291;DHT22;11814;44.686;10.842;2023-08-20T03:37:02;25.40;99.90
23291;DHT22;11814;44.686;10.842;2023-08-20T03:39:28;25.40;99.90
23291;DHT22;11814;44.686;10.842;2023-08-20T03:41:53;25.40;99.90
23291;DHT22;11814;44.686;10.842;2023-08-20T03:44:19;25.40;99.90
23291;DHT22;11814;44.686;10.842;2023-08-20T03:46:45;25.30;99.90
23291;DHT22;11814;44.686;10.842;2023-08-20T03:49:11;25.30;99.90
23291;DHT22;11814;44.686;10.842;2023-08-20T03:51:36;25.20;99.90
23291;DHT22;11814;44.686;10.842;2023-08-20T03:54:02;25.20;99.90
23291;DHT22;11814;44.686;10.842;2023-08-20T03:56:28;25.20;99.90
23291;DHT22;11814;44.686;10.842;2023-08-20T03:58:54;25.10;99.90
23291;DHT22;11814;44.686;10.842;2023-08-20T04:01:20;25.10;99.90
23291;DHT22;11814;44.686;10.842;2023-08-20T04:03:46;25.10;99.90
23291;DHT22;11814;44.686;10.842;2023-08-20T04:06:13;25.10;99.90
23291;DHT22;11814;44.686;10.842;2023-08-20T04:08:38;25.10;99.90
23291;DHT22;11814;44.686;10.842;2023-08-20T04:11:04;25.00;99.90
23291;DHT22;11814;44.686;10.842;2023-08-20T04:13:30;25.00;99.90
23291;DHT22;11814;44.686;10.842;2023-08-20T04:15:56;25.00;99.90
23291;DHT22;11814;44.686;10.842;2023-08-20T04:18:21;25.00;99.90
23291;DHT22;11814;44.686;10.842;2023-08-20T04:20:49;25.00;99.90
23291;DHT22;11814;44.686;10.842;2023-08-20T04:23:15;25.00;99.90
23291;DHT22;11814;44.686;10.842;2023-08-20T04:25:41;25.00;99.90
23291;DHT22;11814;44.686;10.842;2023-08-20T04:28:07;25.00;99.90
23291;DHT22;11814;44.686;10.842;2023-08-20T04:30:34;25.00;99.90
23291;DHT22;11814;44.686;10.842;2023-08-20T04:33:00;24.90;99.90
23291;DHT22;11814;44.686;10.842;2023-08-20T04:35:25;24.90;99.90
23291;DHT22;11814;44.686;10.842;2023-08-20T04:37:51;24.80;99.90
23291;DHT22;11814;44.686;10.842;2023-08-20T04:40:17;24.80;99.90
23291;DHT22;11814;44.686;10.842;2023-08-20T04:42:42;24.80;99.90
23291;DHT22;11814;44.686;10.842;2023-08-20T04:45:09;24.80;99.90
23291;DHT22;11814;44.686;10.842;2023-08-20T04:47:35;24.80;99.90
23291;DHT22;11814;44.686;10.842;2023-08-20T04:50:01;24.80;99.90
23291;DHT22;11814;44.686;10.842;2023-08-20T04:52:27;24.80;99.90
23291;DHT22;11814;44.686;10.842;2023-08-20T04:54:52;24.70;99.90
23291;DHT22;11814;44.686;10.842;2023-08-20T04:57:18;24.70;99.90
23291;DHT22;11814;44.686;10.842;2023-08-20T04:59:43;24.70;99.90
23291;DHT22;11814;44.686;10.842;2023-08-20T05:02:11;24.70;99.90
23291;DHT22;11814;44.686;10.842;2023-08-20T05:04:38;24.80;99.90
23291;DHT22;11814;44.686;10.842;2023-08-20T05:07:04;24.80;99.90
23291;DHT22;11814;44.686;10.842;2023-08-20T05:09:30;24.80;99.90
23291;DHT22;11814;44.686;10.842;2023-08-20T05:11:56;24.80;99.90
23291;DHT22;11814;44.686;10.842;2023-08-20T05:14:21;24.80;99.90
23291;DHT22;11814;44.686;10.842;2023-08-20T05:16:47;24.80;99.90
23291;DHT22;11814;44.686;10.842;2023-08-20T05:19:12;24.90;99.90
23291;DHT22;11814;44.686;10.842;2023-08-20T05:21:38;25.00;99.90
23291;DHT22;11814;44.686;10.842;2023-08-20T05:24:04;25.10;99.90
23291;DHT22;11814;44.686;10.842;2023-08-20T05:26:30;25.20;99.90
23291;DHT22;11814;44.686;10.842;2023-08-20T05:28:56;25.20;99.90
23291;DHT22;11814;44.686;10.842;2023-08-20T05:31:21;25.30;99.90
23291;DHT22;11814;44.686;10.842;2023-08-20T05:33:47;25.40;99.90
23291;DHT22;11814;44.686;10.842;2023-08-20T05:36:14;25.60;99.90
23291;DHT22;11814;44.686;10.842;2023-08-20T05:38:39;25.90;99.90
23291;DHT22;11814;44.686;10.842;2023-08-20T05:41:07;26.00;99.90
23291;DHT22;11814;44.686;10.842;2023-08-20T05:43:33;26.10;99.90
23291;DHT22;11814;44.686;10.842;2023-08-20T05:45:59;26.20;99.90
23291;DHT22;11814;44.686;10.842;2023-08-20T05:48:24;26.30;99.90
23291;DHT22;11814;44.686;10.842;2023-08-20T05:50:50;26.40;99.90
23291;DHT22;11814;44.686;10.842;2023-08-20T05:53:15;26.50;99.90
23291;DHT22;11814;44.686;10.842;2023-08-20T05:55:41;26.50;99.90
23291;DHT22;11814;44.686;10.842;2023-08-20T05:58:07;26.70;99.90
23291;DHT22;11814;44.686;10.842;2023-08-20T06:00:32;26.90;99.90
23291;DHT22;11814;44.686;10.842;2023-08-20T06:02:58;27.30;99.90
23291;DHT22;11814;44.686;10.842;2023-08-20T06:05:23;28.20;99.90
23291;DHT22;11814;44.686;10.842;2023-08-20T06:07:49;29.10;98.60
23291;DHT22;11814;44.686;10.842;2023-08-20T06:10:15;29.60;95.50
23291;DHT22;11814;44.686;10.842;2023-08-20T06:12:41;29.90;94.50
23291;DHT22;11814;44.686;10.842;2023-08-20T06:15:08;30.60;92.60
23291;DHT22;11814;44.686;10.842;2023-08-20T06:17:33;31.40;90.00
23291;DHT22;11814;44.686;10.842;2023-08-20T06:19:59;31.90;85.60
23291;DHT22;11814;44.686;10.842;2023-08-20T06:22:25;32.10;82.70
23291;DHT22;11814;44.686;10.842;2023-08-20T06:24:50;32.10;81.00
23291;DHT22;11814;44.686;10.842;2023-08-20T06:27:16;32.00;79.80
23291;DHT22;11814;44.686;10.842;2023-08-20T06:29:41;31.90;79.30
23291;DHT22;11814;44.686;10.842;2023-08-20T06:32:07;31.80;79.30
23291;DHT22;11814;44.686;10.842;2023-08-20T06:34:36;32.00;78.20
23291;DHT22;11814;44.686;10.842;2023-08-20T06:37:02;32.10;76.70
23291;DHT22;11814;44.686;10.842;2023-08-20T06:39:27;32.10;76.00
23291;DHT22;11814;44.686;10.842;2023-08-20T06:41:53;32.00;76.00
23291;DHT22;11814;44.686;10.842;2023-08-20T06:44:18;31.90;76.70
23291;DHT22;11814;44.686;10.842;2023-08-20T06:46:44;32.00;76.30
23291;DHT22;11814;44.686;10.842;2023-08-20T06:49:10;32.50;74.90
23291;DHT22;11814;44.686;10.842;2023-08-20T06:51:35;32.50;74.00
23291;DHT22;11814;44.686;10.842;2023-08-20T06:54:02;32.50;73.70
23291;DHT22;11814;44.686;10.842;2023-08-20T06:56:27;32.30;73.70
23291;DHT22;11814;44.686;10.842;2023-08-20T06:58:53;32.10;74.30
23291;DHT22;11814;44.686;10.842;2023-08-20T07:01:19;31.90;75.10
23291;DHT22;11814;44.686;10.842;2023-08-20T07:03:45;31.70;75.40
23291;DHT22;11814;44.686;10.842;2023-08-20T07:06:11;31.50;75.80
23291;DHT22;11814;44.686;10.842;2023-08-20T07:08:40;31.40;76.40
23291;DHT22;11814;44.686;10.842;2023-08-20T07:11:06;31.30;76.90
23291;DHT22;11814;44.686;10.842;2023-08-20T07:13:32;31.30;77.20
23291;DHT22;11814;44.686;10.842;2023-08-20T07:15:57;31.30;76.90
23291;DHT22;11814;44.686;10.842;2023-08-20T07:18:23;31.20;77.40
23291;DHT22;11814;44.686;10.842;2023-08-20T07:20:50;31.30;77.10
23291;DHT22;11814;44.686;10.842;2023-08-20T07:23:16;31.30;76.80
23291;DHT22;11814;44.686;10.842;2023-08-20T07:25:42;31.40;76.60
23291;DHT22;11814;44.686;10.842;2023-08-20T07:28:08;31.50;76.60
23291;DHT22;11814;44.686;10.842;2023-08-20T07:30:35;31.80;75.90
23291;DHT22;11814;44.686;10.842;2023-08-20T07:33:01;32.10;75.40
23291;DHT22;11814;44.686;10.842;2023-08-20T07:35:27;32.70;74.30
23291;DHT22;11814;44.686;10.842;2023-08-20T07:37:53;33.10;72.90
23291;DHT22;11814;44.686;10.842;2023-08-20T07:40:19;33.40;72.00
23291;DHT22;11814;44.686;10.842;2023-08-20T07:42:45;33.50;70.80
23291;DHT22;11814;44.686;10.842;2023-08-20T07:45:11;33.40;70.50
23291;DHT22;11814;44.686;10.842;2023-08-20T07:47:37;33.10;70.90
23291;DHT22;11814;44.686;10.842;2023-08-20T07:50:06;32.80;72.00
23291;DHT22;11814;44.686;10.842;2023-08-20T07:52:32;32.50;73.20
23291;DHT22;11814;44.686;10.842;2023-08-20T07:54:58;32.30;73.70
23291;DHT22;11814;44.686;10.842;2023-08-20T07:57:24;32.20;74.50
23291;DHT22;11814;44.686;10.842;2023-08-20T07:59:50;32.40;74.90
23291;DHT22;11814;44.686;10.842;2023-08-20T08:02:16;32.70;74.30
23291;DHT22;11814;44.686;10.842;2023-08-20T08:04:42;32.80;73.70
23291;DHT22;11814;44.686;10.842;2023-08-20T08:07:09;32.90;73.40
23291;DHT22;11814;44.686;10.842;2023-08-20T08:09:35;32.90;73.30
23291;DHT22;11814;44.686;10.842;2023-08-20T08:12:01;32.80;73.20
23291;DHT22;11814;44.686;10.842;2023-08-20T08:14:27;32.80;73.50
23291;DHT22;11814;44.686;10.842;2023-08-20T08:16:53;32.60;74.20
23291;DHT22;11814;44.686;10.842;2023-08-20T08:19:19;32.50;74.30
23291;DHT22;11814;44.686;10.842;2023-08-20T08:21:45;32.50;74.10
23291;DHT22;11814;44.686;10.842;2023-08-20T08:24:11;32.40;73.90
23291;DHT22;11814;44.686;10.842;2023-08-20T08:26:38;32.40;73.70
23291;DHT22;11814;44.686;10.842;2023-08-20T08:29:04;32.40;73.60
23291;DHT22;11814;44.686;10.842;2023-08-20T08:31:30;32.40;73.50
23291;DHT22;11814;44.686;10.842;2023-08-20T08:33:56;32.50;73.40
23291;DHT22;11814;44.686;10.842;2023-08-20T08:36:22;32.50;73.20
23291;DHT22;11814;44.686;10.842;2023-08-20T08:38:50;32.50;72.50
23291;DHT22;11814;44.686;10.842;2023-08-20T08:41:16;32.60;72.20
23291;DHT22;11814;44.686;10.842;2023-08-20T08:43:42;32.80;72.60
23291;DHT22;11814;44.686;10.842;2023-08-20T08:46:14;33.00;71.80
23291;DHT22;11814;44.686;10.842;2023-08-20T08:48:44;33.10;71.50
23291;DHT22;11814;44.686;10.842;2023-08-20T08:51:11;33.20;71.40
23291;DHT22;11814;44.686;10.842;2023-08-20T08:53:38;33.20;71.30
23291;DHT22;11814;44.686;10.842;2023-08-20T08:56:04;33.10;70.80
23291;DHT22;11814;44.686;10.842;2023-08-20T08:58:31;33.00;70.30
23291;DHT22;11814;44.686;10.842;2023-08-20T09:00:58;33.00;70.30
23291;DHT22;11814;44.686;10.842;2023-08-20T09:03:24;32.90;70.00
23291;DHT22;11814;44.686;10.842;2023-08-20T09:06:00;32.90;69.00
23291;DHT22;11814;44.686;10.842;2023-08-20T09:08:29;32.90;68.50
23291;DHT22;11814;44.686;10.842;2023-08-20T09:10:56;32.90;69.00
23291;DHT22;11814;44.686;10.842;2023-08-20T09:13:32;33.00;69.30
23291;DHT22;11814;44.686;10.842;2023-08-20T09:15:58;33.00;69.20
23291;DHT22;11814;44.686;10.842;2023-08-20T09:18:24;33.00;69.10
23291;DHT22;11814;44.686;10.842;2023-08-20T09:20:50;33.10;69.10
23291;DHT22;11814;44.686;10.842;2023-08-20T09:23:16;33.10;69.00
23291;DHT22;11814;44.686;10.842;2023-08-20T09:25:42;33.20;68.90
23291;DHT22;11814;44.686;10.842;2023-08-20T09:28:09;33.30;68.70
23291;DHT22;11814;44.686;10.842;2023-08-20T09:30:34;33.30;68.60
23291;DHT22;11814;44.686;10.842;2023-08-20T09:33:13;33.40;68.50
23291;DHT22;11814;44.686;10.842;2023-08-20T09:35:49;33.40;68.30
23291;DHT22;11814;44.686;10.842;2023-08-20T09:38:16;33.50;68.20
23291;DHT22;11814;44.686;10.842;2023-08-20T09:40:44;33.50;68.40
23291;DHT22;11814;44.686;10.842;2023-08-20T09:43:10;33.50;68.30
23291;DHT22;11814;44.686;10.842;2023-08-20T09:45:38;33.50;68.20
23291;DHT22;11814;44.686;10.842;2023-08-20T09:48:05;33.50;68.20
23291;DHT22;11814;44.686;10.842;2023-08-20T09:50:36;33.60;68.20
23291;DHT22;11814;44.686;10.842;2023-08-20T09:55:43;33.70;67.60
23291;DHT22;11814;44.686;10.842;2023-08-20T09:58:10;33.60;67.50
23291;DHT22;11814;44.686;10.842;2023-08-20T10:00:36;33.60;67.60
23291;DHT22;11814;44.686;10.842;2023-08-20T10:03:02;33.70;67.60
23291;DHT22;11814;44.686;10.842;2023-08-20T10:05:28;33.80;67.10
23291;DHT22;11814;44.686;10.842;2023-08-20T10:07:55;33.90;67.00
23291;DHT22;11814;44.686;10.842;2023-08-20T10:10:21;33.90;66.70
23291;DHT22;11814;44.686;10.842;2023-08-20T10:12:47;33.90;66.70
23291;DHT22;11814;44.686;10.842;2023-08-20T10:15:14;34.00;66.70
23291;DHT22;11814;44.686;10.842;2023-08-20T10:17:42;34.00;66.60
23291;DHT22;11814;44.686;10.842;2023-08-20T10:20:08;34.00;66.70
23291;DHT22;11814;44.686;10.842;2023-08-20T10:22:36;34.10;66.50
23291;DHT22;11814;44.686;10.842;2023-08-20T10:25:10;34.10;66.40
23291;DHT22;11814;44.686;10.842;2023-08-20T10:27:38;34.20;66.20
23291;DHT22;11814;44.686;10.842;2023-08-20T10:30:11;34.20;65.70
23291;DHT22;11814;44.686;10.842;2023-08-20T10:32:56;34.20;65.10
23291;DHT22;11814;44.686;10.842;2023-08-20T10:35:31;34.20;64.50
23291;DHT22;11814;44.686;10.842;2023-08-20T10:43:27;34.30;63.90
23291;DHT22;11814;44.686;10.842;2023-08-20T10:46:05;34.20;63.50
23291;DHT22;11814;44.686;10.842;2023-08-20T10:48:32;34.30;63.40
23291;DHT22;11814;44.686;10.842;2023-08-20T10:51:15;34.30;63.50
23291;DHT22;11814;44.686;10.842;2023-08-20T10:53:43;34.40;63.70
23291;DHT22;11814;44.686;10.842;2023-08-20T10:56:15;34.40;63.60
23291;DHT22;11814;44.686;10.842;2023-08-20T10:58:42;34.40;63.50
23291;DHT22;11814;44.686;10.842;2023-08-20T11:01:19;34.40;63.70
23291;DHT22;11814;44.686;10.842;2023-08-20T11:03:45;34.50;64.10
23291;DHT22;11814;44.686;10.842;2023-08-20T11:06:12;34.50;63.90
23291;DHT22;11814;44.686;10.842;2023-08-20T11:08:38;34.60;63.60
23291;DHT22;11814;44.686;10.842;2023-08-20T11:11:05;34.60;63.30
23291;DHT22;11814;44.686;10.842;2023-08-20T11:13:32;34.70;63.40
23291;DHT22;11814;44.686;10.842;2023-08-20T11:15:59;34.80;62.60
23291;DHT22;11814;44.686;10.842;2023-08-20T11:18:25;34.90;62.00
23291;DHT22;11814;44.686;10.842;2023-08-20T11:20:51;34.90;62.10
23291;DHT22;11814;44.686;10.842;2023-08-20T11:23:17;35.00;61.70
23291;DHT22;11814;44.686;10.842;2023-08-20T11:25:43;35.00;61.90
23291;DHT22;11814;44.686;10.842;2023-08-20T11:28:09;35.00;61.00
23291;DHT22;11814;44.686;10.842;2023-08-20T11:30:35;35.00;60.90
23291;DHT22;11814;44.686;10.842;2023-08-20T11:33:01;35.00;60.60
23291;DHT22;11814;44.686;10.842;2023-08-20T11:35:28;35.10;60.40
23291;DHT22;11814;44.686;10.842;2023-08-20T11:37:53;35.10;60.30
23291;DHT22;11814;44.686;10.842;2023-08-20T11:40:22;35.10;60.00
23291;DHT22;11814;44.686;10.842;2023-08-20T11:42:48;35.10;59.70
23291;DHT22;11814;44.686;10.842;2023-08-20T11:45:14;35.10;59.70
23291;DHT22;11814;44.686;10.842;2023-08-20T11:47:41;35.10;59.80
23291;DHT22;11814;44.686;10.842;2023-08-20T11:50:08;35.20;59.70
23291;DHT22;11814;44.686;10.842;2023-08-20T11:52:35;35.30;59.40
23291;DHT22;11814;44.686;10.842;2023-08-20T11:55:00;35.30;59.40
23291;DHT22;11814;44.686;10.842;2023-08-20T11:57:28;35.30;60.00
23291;DHT22;11814;44.686;10.842;2023-08-20T11:59:54;35.40;59.40
23291;DHT22;11814;44.686;10.842;2023-08-20T12:02:27;35.40;59.90
23291;DHT22;11814;44.686;10.842;2023-08-20T12:04:58;35.30;59.20
23291;DHT22;11814;44.686;10.842;2023-08-20T12:07:27;35.30;59.30
23291;DHT22;11814;44.686;10.842;2023-08-20T12:09:56;35.30;59.60
23291;DHT22;11814;44.686;10.842;2023-08-20T12:12:22;35.20;58.80
23291;DHT22;11814;44.686;10.842;2023-08-20T12:14:48;35.20;58.30
23291;DHT22;11814;44.686;10.842;2023-08-20T12:17:17;35.20;58.30
23291;DHT22;11814;44.686;10.842;2023-08-20T12:19:44;35.30;58.30
23291;DHT22;11814;44.686;10.842;2023-08-20T12:22:10;35.40;58.30
23291;DHT22;11814;44.686;10.842;2023-08-20T12:24:35;35.30;58.00
23291;DHT22;11814;44.686;10.842;2023-08-20T12:27:01;35.30;57.80
23291;DHT22;11814;44.686;10.842;2023-08-20T12:29:28;35.30;57.60
23291;DHT22;11814;44.686;10.842;2023-08-20T12:31:53;35.30;57.50
23291;DHT22;11814;44.686;10.842;2023-08-20T12:34:19;35.30;57.50
23291;DHT22;11814;44.686;10.842;2023-08-20T12:36:47;35.40;57.20
23291;DHT22;11814;44.686;10.842;2023-08-20T12:39:12;35.40;56.90
23291;DHT22;11814;44.686;10.842;2023-08-20T12:41:39;35.50;56.90
23291;DHT22;11814;44.686;10.842;2023-08-20T12:44:05;35.50;56.40
23291;DHT22;11814;44.686;10.842;2023-08-20T12:46:31;35.50;56.00
23291;DHT22;11814;44.686;10.842;2023-08-20T12:48:56;35.50;55.80
23291;DHT22;11814;44.686;10.842;2023-08-20T12:51:22;35.50;55.80
23291;DHT22;11814;44.686;10.842;2023-08-20T12:53:48;35.60;56.20
23291;DHT22;11814;44.686;10.842;2023-08-20T12:56:14;35.60;56.30
23291;DHT22;11814;44.686;10.842;2023-08-20T12:58:41;35.60;56.40
23291;DHT22;11814;44.686;10.842;2023-08-20T13:01:06;35.50;56.20
23291;DHT22;11814;44.686;10.842;2023-08-20T13:03:32;35.60;56.00
23291;DHT22;11814;44.686;10.842;2023-08-20T13:05:58;35.60;56.20
23291;DHT22;11814;44.686;10.842;2023-08-20T13:08:25;35.60;56.60
23291;DHT22;11814;44.686;10.842;2023-08-20T13:10:56;35.60;56.50
23291;DHT22;11814;44.686;10.842;2023-08-20T13:13:23;35.60;56.50
23291;DHT22;11814;44.686;10.842;2023-08-20T13:15:53;35.70;56.70
23291;DHT22;11814;44.686;10.842;2023-08-20T13:18:19;35.60;56.60
23291;DHT22;11814;44.686;10.842;2023-08-20T13:20:45;35.60;56.80
23291;DHT22;11814;44.686;10.842;2023-08-20T13:23:11;35.60;57.10
23291;DHT22;11814;44.686;10.842;2023-08-20T13:25:36;35.60;57.90
23291;DHT22;11814;44.686;10.842;2023-08-20T13:28:02;35.60;57.40
23291;DHT22;11814;44.686;10.842;2023-08-20T13:30:28;35.70;57.20
23291;DHT22;11814;44.686;10.842;2023-08-20T13:32:54;35.70;57.10
23291;DHT22;11814;44.686;10.842;2023-08-20T13:35:20;35.70;57.10
23291;DHT22;11814;44.686;10.842;2023-08-20T13:37:45;35.70;57.30
23291;DHT22;11814;44.686;10.842;2023-08-20T13:40:11;35.60;57.50
23291;DHT22;11814;44.686;10.842;2023-08-20T13:42:37;35.70;57.60
23291;DHT22;11814;44.686;10.842;2023-08-20T13:45:03;35.70;57.40
23291;DHT22;11814;44.686;10.842;2023-08-20T13:47:29;35.70;57.20
23291;DHT22;11814;44.686;10.842;2023-08-20T13:49:55;35.70;56.70
23291;DHT22;11814;44.686;10.842;2023-08-20T13:52:20;35.80;56.50
23291;DHT22;11814;44.686;10.842;2023-08-20T13:54:46;35.80;56.40
23291;DHT22;11814;44.686;10.842;2023-08-20T13:57:21;35.80;55.60
23291;DHT22;11814;44.686;10.842;2023-08-20T13:59:46;35.80;55.40
23291;DHT22;11814;44.686;10.842;2023-08-20T14:02:12;35.80;55.80
23291;DHT22;11814;44.686;10.842;2023-08-20T14:04:38;35.80;56.00
23291;DHT22;11814;44.686;10.842;2023-08-20T14:07:03;35.80;56.20
23291;DHT22;11814;44.686;10.842;2023-08-20T14:09:29;35.80;56.10
23291;DHT22;11814;44.686;10.842;2023-08-20T14:11:55;35.80;56.30
23291;DHT22;11814;44.686;10.842;2023-08-20T14:14:20;35.80;56.20
23291;DHT22;11814;44.686;10.842;2023-08-20T14:16:46;35.90;56.20
23291;DHT22;11814;44.686;10.842;2023-08-20T14:19:11;35.80;56.50
23291;DHT22;11814;44.686;10.842;2023-08-20T14:21:37;35.80;55.80
23291;DHT22;11814;44.686;10.842;2023-08-20T14:24:03;35.80;55.60
23291;DHT22;11814;44.686;10.842;2023-08-20T14:26:29;35.80;55.60
23291;DHT22;11814;44.686;10.842;2023-08-20T14:28:55;35.80;55.80
23291;DHT22;11814;44.686;10.842;2023-08-20T14:31:20;35.80;55.70
23291;DHT22;11814;44.686;10.842;2023-08-20T14:33:46;35.80;55.40
23291;DHT22;11814;44.686;10.842;2023-08-20T14:36:12;35.90;56.00
23291;DHT22;11814;44.686;10.842;2023-08-20T14:38:37;36.00;55.40
23291;DHT22;11814;44.686;10.842;2023-08-20T14:41:03;36.00;55.70
23291;DHT22;11814;44.686;10.842;2023-08-20T14:43:29;36.00;55.90
23291;DHT22;11814;44.686;10.842;2023-08-20T14:45:55;36.00;55.70
23291;DHT22;11814;44.686;10.842;2023-08-20T14:48:24;36.10;55.40
23291;DHT22;11814;44.686;10.842;2023-08-20T14:50:50;36.00;55.40
23291;DHT22;11814;44.686;10.842;2023-08-20T14:53:16;36.00;55.40
23291;DHT22;11814;44.686;10.842;2023-08-20T14:55:43;36.00;55.30
23291;DHT22;11814;44.686;10.842;2023-08-20T14:58:09;36.10;55.00
23291;DHT22;11814;44.686;10.842;2023-08-20T15:00:35;36.00;55.00
23291;DHT22;11814;44.686;10.842;2023-08-20T15:03:01;36.10;55.10
23291;DHT22;11814;44.686;10.842;2023-08-20T15:05:28;36.00;55.30
23291;DHT22;11814;44.686;10.842;2023-08-20T15:07:54;36.10;56.20
23291;DHT22;11814;44.686;10.842;2023-08-20T15:10:20;36.10;55.90
23291;DHT22;11814;44.686;10.842;2023-08-20T15:12:45;36.20;56.30
23291;DHT22;11814;44.686;10.842;2023-08-20T15:15:11;36.10;55.70
23291;DHT22;11814;44.686;10.842;2023-08-20T15:17:37;36.20;55.60
23291;DHT22;11814;44.686;10.842;2023-08-20T15:20:04;36.20;55.30
23291;DHT22;11814;44.686;10.842;2023-08-20T15:22:39;36.10;54.80
23291;DHT22;11814;44.686;10.842;2023-08-20T15:25:05;36.10;54.40
23291;DHT22;11814;44.686;10.842;2023-08-20T15:27:36;36.00;54.00
23291;DHT22;11814;44.686;10.842;2023-08-20T15:30:03;35.90;54.00